📊 Raw Sensor Data
Showing records 51876 to 51900 of 85,154 total
| ID | Distance (ft) | Battery V | Battery A | Int Temp (°F) | Int Humid (%) | Ext Temp (°F) | Solar V | RSSI | SNR | Time Stamp |
|---|---|---|---|---|---|---|---|---|---|---|
| 33291 | 14.6 | 4.03 | 0 | 65 | 34 | 63 | 5.10 | -70 | 8 | 02/24/2025 10:00 AM |
| 33290 | 14.6 | 3.79 | 0 | 61 | 35 | 66 | 5.10 | -71 | 8 | 02/24/2025 09:45 AM |
| 33289 | 14.6 | 3.88 | 0 | 59 | 36 | 65 | 5.10 | -71 | 8 | 02/24/2025 09:30 AM |
| 33288 | 14.6 | 3.79 | 0 | 56 | 37 | 62 | 5.10 | -69 | 8 | 02/24/2025 09:15 AM |
| 33287 | 14.5 | 3.79 | 0 | 54 | 37 | 57 | 5.10 | -70 | 7 | 02/24/2025 09:00 AM |
| 33286 | 14.5 | 3.79 | -5 | 53 | 37 | 54 | 5.10 | -71 | 7 | 02/24/2025 08:45 AM |
| 33285 | 14.5 | 4.04 | 88 | 52 | 37 | 53 | 4.50 | -71 | 7 | 02/24/2025 08:15 AM |
| 33284 | 14.5 | 3.92 | 25 | 52 | 37 | 52 | 4.50 | -70 | 8 | 02/24/2025 08:00 AM |
| 33283 | 14.5 | 3.89 | 14 | 51 | 38 | 52 | 4.50 | -70 | 8 | 02/24/2025 07:45 AM |
| 33282 | 14.5 | 3.84 | -9 | 51 | 38 | 51 | 4.50 | -71 | 8 | 02/24/2025 07:30 AM |
| 33281 | 14.4 | 3.86 | 7 | 51 | 38 | 51 | 4.50 | -71 | 8 | 02/24/2025 07:15 AM |
| 33280 | 14.4 | 3.79 | -7 | 51 | 38 | 51 | 4.50 | -71 | 7 | 02/24/2025 07:00 AM |
| 33279 | 14.4 | 3.79 | -8 | 51 | 37 | 51 | 2.20 | -71 | 8 | 02/24/2025 06:45 AM |
| 33278 | 14.4 | 3.84 | -5 | 51 | 37 | 51 | 0.30 | -70 | 8 | 02/24/2025 06:30 AM |
| 33277 | 14.4 | 3.79 | -5 | 50 | 37 | 51 | 0.00 | -71 | 8 | 02/24/2025 06:15 AM |
| 33276 | 14.4 | 3.84 | -5 | 49 | 37 | 51 | 0.00 | -71 | 8 | 02/24/2025 06:00 AM |
| 33275 | 14.4 | 3.79 | -5 | 48 | 38 | 50 | 0.00 | -70 | 8 | 02/24/2025 05:45 AM |
| 33274 | 14.4 | 3.79 | -5 | 48 | 38 | 49 | 0.00 | -71 | 8 | 02/24/2025 05:30 AM |
| 33273 | 14.4 | 3.79 | -5 | 47 | 38 | 48 | 0.00 | -71 | 7 | 02/24/2025 05:15 AM |
| 33272 | 14.4 | 3.85 | -5 | 47 | 38 | 48 | 0.00 | -71 | 8 | 02/24/2025 05:00 AM |
| 33271 | 14.4 | 3.79 | -5 | 47 | 38 | 47 | 0.00 | -71 | 8 | 02/24/2025 04:45 AM |
| 33270 | 14.4 | 3.85 | -5 | 47 | 38 | 48 | 0.00 | -71 | 8 | 02/24/2025 04:30 AM |
| 33269 | 14.4 | 3.79 | -5 | 47 | 38 | 48 | 0.00 | -70 | 8 | 02/24/2025 04:15 AM |
| 33268 | 14.4 | 3.85 | -5 | 47 | 38 | 48 | 0.10 | -70 | 8 | 02/24/2025 04:00 AM |
| 33267 | 14.4 | 3.80 | -5 | 47 | 38 | 48 | 0.00 | -70 | 8 | 02/24/2025 03:45 AM |